sensor_id;sensor_type;location;lat;lon;timestamp;temperature;humidity
19544;DHT22;9917;51.256;7.152;2023-02-04T00:00:19;8.80;99.90
19544;DHT22;9917;51.256;7.152;2023-02-04T00:02:45;8.90;99.90
19544;DHT22;9917;51.256;7.152;2023-02-04T00:05:13;9.00;99.90
19544;DHT22;9917;51.256;7.152;2023-02-04T00:07:40;8.90;99.90
19544;DHT22;9917;51.256;7.152;2023-02-04T00:10:07;9.00;99.90
19544;DHT22;9917;51.256;7.152;2023-02-04T00:12:33;8.90;99.90
19544;DHT22;9917;51.256;7.152;2023-02-04T00:14:58;9.10;99.90
19544;DHT22;9917;51.256;7.152;2023-02-04T00:17:24;8.90;99.90
19544;DHT22;9917;51.256;7.152;2023-02-04T00:19:50;8.90;99.90
19544;DHT22;9917;51.256;7.152;2023-02-04T00:22:17;8.90;99.90
19544;DHT22;9917;51.256;7.152;2023-02-04T00:24:43;8.90;99.90
19544;DHT22;9917;51.256;7.152;2023-02-04T00:27:08;8.80;99.90
19544;DHT22;9917;51.256;7.152;2023-02-04T00:29:34;8.70;99.90
19544;DHT22;9917;51.256;7.152;2023-02-04T00:32:00;8.70;99.90
19544;DHT22;9917;51.256;7.152;2023-02-04T00:34:26;8.60;99.90
19544;DHT22;9917;51.256;7.152;2023-02-04T00:36:51;8.60;99.90
19544;DHT22;9917;51.256;7.152;2023-02-04T00:39:18;8.50;99.90
19544;DHT22;9917;51.256;7.152;2023-02-04T00:44:10;8.50;99.90
19544;DHT22;9917;51.256;7.152;2023-02-04T00:46:36;8.50;99.90
19544;DHT22;9917;51.256;7.152;2023-02-04T00:49:01;8.60;99.90
19544;DHT22;9917;51.256;7.152;2023-02-04T00:51:27;8.60;99.90
19544;DHT22;9917;51.256;7.152;2023-02-04T00:53:53;8.50;99.90
19544;DHT22;9917;51.256;7.152;2023-02-04T00:56:20;8.50;99.90
19544;DHT22;9917;51.256;7.152;2023-02-04T00:58:46;8.60;99.90
19544;DHT22;9917;51.256;7.152;2023-02-04T01:01:11;8.70;99.90
19544;DHT22;9917;51.256;7.152;2023-02-04T01:03:37;8.70;99.90
19544;DHT22;9917;51.256;7.152;2023-02-04T01:06:03;8.80;99.90
19544;DHT22;9917;51.256;7.152;2023-02-04T01:08:28;8.80;99.90
19544;DHT22;9917;51.256;7.152;2023-02-04T01:10:54;8.80;99.90
19544;DHT22;9917;51.256;7.152;2023-02-04T01:13:21;8.60;99.90
19544;DHT22;9917;51.256;7.152;2023-02-04T01:15:47;8.70;99.90
19544;DHT22;9917;51.256;7.152;2023-02-04T01:18:13;8.70;99.90
19544;DHT22;9917;51.256;7.152;2023-02-04T01:20:38;8.60;99.90
19544;DHT22;9917;51.256;7.152;2023-02-04T01:23:04;8.60;99.90
19544;DHT22;9917;51.256;7.152;2023-02-04T01:25:30;8.60;99.90
19544;DHT22;9917;51.256;7.152;2023-02-04T01:27:55;8.60;99.90
19544;DHT22;9917;51.256;7.152;2023-02-04T01:30:22;8.70;99.90
19544;DHT22;9917;51.256;7.152;2023-02-04T01:32:48;8.70;99.90
19544;DHT22;9917;51.256;7.152;2023-02-04T01:35:14;8.70;99.90
19544;DHT22;9917;51.256;7.152;2023-02-04T01:37:40;8.70;99.90
19544;DHT22;9917;51.256;7.152;2023-02-04T01:40:06;8.90;99.90
19544;DHT22;9917;51.256;7.152;2023-02-04T01:42:32;8.80;99.90
19544;DHT22;9917;51.256;7.152;2023-02-04T01:44:58;8.70;99.90
19544;DHT22;9917;51.256;7.152;2023-02-04T01:47:25;8.70;99.90
19544;DHT22;9917;51.256;7.152;2023-02-04T01:49:53;8.80;99.90
19544;DHT22;9917;51.256;7.152;2023-02-04T01:52:19;8.80;99.90
19544;DHT22;9917;51.256;7.152;2023-02-04T01:54:46;8.80;99.90
19544;DHT22;9917;51.256;7.152;2023-02-04T01:57:14;8.70;99.90
19544;DHT22;9917;51.256;7.152;2023-02-04T01:59:42;8.80;99.90
19544;DHT22;9917;51.256;7.152;2023-02-04T02:05:18;8.90;99.90
19544;DHT22;9917;51.256;7.152;2023-02-04T02:07:45;8.80;99.90
19544;DHT22;9917;51.256;7.152;2023-02-04T02:10:12;8.80;99.90
19544;DHT22;9917;51.256;7.152;2023-02-04T02:12:38;8.90;99.90
19544;DHT22;9917;51.256;7.152;2023-02-04T02:15:04;8.80;99.90
19544;DHT22;9917;51.256;7.152;2023-02-04T02:17:30;8.80;99.90
19544;DHT22;9917;51.256;7.152;2023-02-04T02:19:56;8.70;99.90
19544;DHT22;9917;51.256;7.152;2023-02-04T02:22:27;8.70;99.90
19544;DHT22;9917;51.256;7.152;2023-02-04T02:24:54;8.70;99.90
19544;DHT22;9917;51.256;7.152;2023-02-04T02:27:21;8.70;99.90
19544;DHT22;9917;51.256;7.152;2023-02-04T02:29:47;8.80;99.90
19544;DHT22;9917;51.256;7.152;2023-02-04T02:32:13;8.70;99.90
19544;DHT22;9917;51.256;7.152;2023-02-04T02:34:40;8.70;99.90
19544;DHT22;9917;51.256;7.152;2023-02-04T02:37:06;8.70;99.90
19544;DHT22;9917;51.256;7.152;2023-02-04T02:39:32;8.60;99.90
19544;DHT22;9917;51.256;7.152;2023-02-04T02:42:00;8.70;99.90
19544;DHT22;9917;51.256;7.152;2023-02-04T02:44:27;8.60;99.90
19544;DHT22;9917;51.256;7.152;2023-02-04T02:46:53;8.70;99.90
19544;DHT22;9917;51.256;7.152;2023-02-04T02:49:20;8.70;99.90
19544;DHT22;9917;51.256;7.152;2023-02-04T02:51:47;8.80;99.90
19544;DHT22;9917;51.256;7.152;2023-02-04T02:54:20;8.80;99.90
19544;DHT22;9917;51.256;7.152;2023-02-04T02:56:46;8.80;99.90
19544;DHT22;9917;51.256;7.152;2023-02-04T02:59:14;8.90;99.90
19544;DHT22;9917;51.256;7.152;2023-02-04T03:01:40;8.80;99.90
19544;DHT22;9917;51.256;7.152;2023-02-04T03:04:07;8.80;99.90
19544;DHT22;9917;51.256;7.152;2023-02-04T03:06:33;8.70;99.90
19544;DHT22;9917;51.256;7.152;2023-02-04T03:08:59;8.70;99.90
19544;DHT22;9917;51.256;7.152;2023-02-04T03:11:25;8.80;99.90
19544;DHT22;9917;51.256;7.152;2023-02-04T03:13:51;8.70;99.90
19544;DHT22;9917;51.256;7.152;2023-02-04T03:16:18;8.70;99.90
19544;DHT22;9917;51.256;7.152;2023-02-04T03:18:44;8.70;99.90
19544;DHT22;9917;51.256;7.152;2023-02-04T03:21:10;8.70;99.90
19544;DHT22;9917;51.256;7.152;2023-02-04T03:23:36;8.70;99.90
19544;DHT22;9917;51.256;7.152;2023-02-04T03:26:02;8.80;99.90
19544;DHT22;9917;51.256;7.152;2023-02-04T03:28:29;8.80;99.90
19544;DHT22;9917;51.256;7.152;2023-02-04T03:30:54;8.80;99.90
19544;DHT22;9917;51.256;7.152;2023-02-04T03:33:22;8.80;99.90
19544;DHT22;9917;51.256;7.152;2023-02-04T03:35:48;8.80;99.90
19544;DHT22;9917;51.256;7.152;2023-02-04T03:38:13;8.70;99.90
19544;DHT22;9917;51.256;7.152;2023-02-04T03:40:39;8.70;99.90
19544;DHT22;9917;51.256;7.152;2023-02-04T03:43:05;8.60;99.90
19544;DHT22;9917;51.256;7.152;2023-02-04T03:45:30;8.60;99.90
19544;DHT22;9917;51.256;7.152;2023-02-04T03:47:56;8.60;99.90
19544;DHT22;9917;51.256;7.152;2023-02-04T03:50:23;8.60;99.90
19544;DHT22;9917;51.256;7.152;2023-02-04T03:52:49;8.60;99.90
19544;DHT22;9917;51.256;7.152;2023-02-04T03:55:15;8.60;99.90
19544;DHT22;9917;51.256;7.152;2023-02-04T03:57:40;8.60;99.90
19544;DHT22;9917;51.256;7.152;2023-02-04T04:00:07;8.80;99.90
19544;DHT22;9917;51.256;7.152;2023-02-04T04:02:33;8.70;99.90
19544;DHT22;9917;51.256;7.152;2023-02-04T04:04:59;8.70;99.90
19544;DHT22;9917;51.256;7.152;2023-02-04T04:07:26;8.60;99.90
19544;DHT22;9917;51.256;7.152;2023-02-04T04:09:52;8.60;99.90
19544;DHT22;9917;51.256;7.152;2023-02-04T04:12:18;8.60;99.90
19544;DHT22;9917;51.256;7.152;2023-02-04T04:14:43;8.60;99.90
19544;DHT22;9917;51.256;7.152;2023-02-04T04:17:09;8.70;99.90
19544;DHT22;9917;51.256;7.152;2023-02-04T04:19:35;8.70;99.90
19544;DHT22;9917;51.256;7.152;2023-02-04T04:22:00;8.50;99.90
19544;DHT22;9917;51.256;7.152;2023-02-04T04:24:27;8.60;99.90
19544;DHT22;9917;51.256;7.152;2023-02-04T04:26:53;8.60;99.90
19544;DHT22;9917;51.256;7.152;2023-02-04T04:29:19;8.60;99.90
19544;DHT22;9917;51.256;7.152;2023-02-04T04:31:44;8.60;99.90
19544;DHT22;9917;51.256;7.152;2023-02-04T04:34:10;8.60;99.90
19544;DHT22;9917;51.256;7.152;2023-02-04T04:36:36;8.70;99.90
19544;DHT22;9917;51.256;7.152;2023-02-04T04:39:02;8.70;99.90
19544;DHT22;9917;51.256;7.152;2023-02-04T04:41:29;8.80;99.90
19544;DHT22;9917;51.256;7.152;2023-02-04T04:43:55;8.80;99.90
19544;DHT22;9917;51.256;7.152;2023-02-04T04:46:21;8.80;99.90
19544;DHT22;9917;51.256;7.152;2023-02-04T04:48:46;8.80;99.90
19544;DHT22;9917;51.256;7.152;2023-02-04T04:51:12;8.80;99.90
19544;DHT22;9917;51.256;7.152;2023-02-04T04:53:38;8.80;99.90
19544;DHT22;9917;51.256;7.152;2023-02-04T04:56:04;8.90;99.90
19544;DHT22;9917;51.256;7.152;2023-02-04T04:58:31;8.80;99.90
19544;DHT22;9917;51.256;7.152;2023-02-04T05:00:57;8.80;99.90
19544;DHT22;9917;51.256;7.152;2023-02-04T05:03:22;8.80;99.90
19544;DHT22;9917;51.256;7.152;2023-02-04T05:05:48;8.80;99.90
19544;DHT22;9917;51.256;7.152;2023-02-04T05:08:14;8.80;99.90
19544;DHT22;9917;51.256;7.152;2023-02-04T05:10:40;8.80;99.90
19544;DHT22;9917;51.256;7.152;2023-02-04T05:13:06;8.80;99.90
19544;DHT22;9917;51.256;7.152;2023-02-04T05:15:33;8.70;99.90
19544;DHT22;9917;51.256;7.152;2023-02-04T05:17:58;8.80;99.90
19544;DHT22;9917;51.256;7.152;2023-02-04T05:20:24;8.80;99.90
19544;DHT22;9917;51.256;7.152;2023-02-04T05:22:50;8.80;99.90
19544;DHT22;9917;51.256;7.152;2023-02-04T05:27:42;8.90;99.90
19544;DHT22;9917;51.256;7.152;2023-02-04T05:30:10;8.90;99.90
19544;DHT22;9917;51.256;7.152;2023-02-04T05:32:37;8.80;99.90
19544;DHT22;9917;51.256;7.152;2023-02-04T05:35:04;8.80;99.90
19544;DHT22;9917;51.256;7.152;2023-02-04T05:37:30;8.70;99.90
19544;DHT22;9917;51.256;7.152;2023-02-04T05:39:56;8.60;99.90
19544;DHT22;9917;51.256;7.152;2023-02-04T05:42:22;8.70;99.90
19544;DHT22;9917;51.256;7.152;2023-02-04T05:44:48;8.80;99.90
19544;DHT22;9917;51.256;7.152;2023-02-04T05:47:14;8.70;99.90
19544;DHT22;9917;51.256;7.152;2023-02-04T05:49:41;8.80;99.90
19544;DHT22;9917;51.256;7.152;2023-02-04T05:52:07;8.70;99.90
19544;DHT22;9917;51.256;7.152;2023-02-04T05:54:33;8.70;99.90
19544;DHT22;9917;51.256;7.152;2023-02-04T05:56:58;8.70;99.90
19544;DHT22;9917;51.256;7.152;2023-02-04T05:59:24;8.60;99.90
19544;DHT22;9917;51.256;7.152;2023-02-04T06:01:50;8.70;99.90
19544;DHT22;9917;51.256;7.152;2023-02-04T06:04:16;8.80;99.90
19544;DHT22;9917;51.256;7.152;2023-02-04T06:06:43;8.80;99.90
19544;DHT22;9917;51.256;7.152;2023-02-04T06:09:09;8.80;99.90
19544;DHT22;9917;51.256;7.152;2023-02-04T06:11:35;8.70;99.90
19544;DHT22;9917;51.256;7.152;2023-02-04T06:14:01;8.70;99.90
19544;DHT22;9917;51.256;7.152;2023-02-04T06:16:26;8.70;99.90
19544;DHT22;9917;51.256;7.152;2023-02-04T06:18:52;8.80;99.90
19544;DHT22;9917;51.256;7.152;2023-02-04T06:21:18;8.70;99.90
19544;DHT22;9917;51.256;7.152;2023-02-04T06:23:45;8.70;99.90
19544;DHT22;9917;51.256;7.152;2023-02-04T06:26:11;8.70;99.90
19544;DHT22;9917;51.256;7.152;2023-02-04T06:28:37;8.60;99.90
19544;DHT22;9917;51.256;7.152;2023-02-04T06:31:03;8.70;99.90
19544;DHT22;9917;51.256;7.152;2023-02-04T06:33:29;8.70;99.90
19544;DHT22;9917;51.256;7.152;2023-02-04T06:35:54;8.70;99.90
19544;DHT22;9917;51.256;7.152;2023-02-04T06:38:20;8.70;99.90
19544;DHT22;9917;51.256;7.152;2023-02-04T06:40:47;8.70;99.90
19544;DHT22;9917;51.256;7.152;2023-02-04T06:43:13;8.70;99.90
19544;DHT22;9917;51.256;7.152;2023-02-04T06:45:38;8.70;99.90
19544;DHT22;9917;51.256;7.152;2023-02-04T06:48:04;8.70;99.90
19544;DHT22;9917;51.256;7.152;2023-02-04T06:50:30;8.80;99.90
19544;DHT22;9917;51.256;7.152;2023-02-04T06:52:56;8.70;99.90
19544;DHT22;9917;51.256;7.152;2023-02-04T06:55:21;8.70;99.90
19544;DHT22;9917;51.256;7.152;2023-02-04T06:57:49;8.70;99.90
19544;DHT22;9917;51.256;7.152;2023-02-04T07:00:15;8.50;99.90
19544;DHT22;9917;51.256;7.152;2023-02-04T07:02:40;8.60;99.90
19544;DHT22;9917;51.256;7.152;2023-02-04T07:05:06;8.70;99.90
19544;DHT22;9917;51.256;7.152;2023-02-04T07:07:32;8.70;99.90
19544;DHT22;9917;51.256;7.152;2023-02-04T07:09:58;8.70;99.90
19544;DHT22;9917;51.256;7.152;2023-02-04T07:12:24;8.80;99.90
19544;DHT22;9917;51.256;7.152;2023-02-04T07:14:51;8.80;99.90
19544;DHT22;9917;51.256;7.152;2023-02-04T07:17:16;8.80;99.90
19544;DHT22;9917;51.256;7.152;2023-02-04T07:19:42;8.80;99.90
19544;DHT22;9917;51.256;7.152;2023-02-04T07:22:08;8.80;99.90
19544;DHT22;9917;51.256;7.152;2023-02-04T07:24:34;8.90;99.90
19544;DHT22;9917;51.256;7.152;2023-02-04T07:27:00;9.00;99.90
19544;DHT22;9917;51.256;7.152;2023-02-04T07:29:25;8.90;99.90
19544;DHT22;9917;51.256;7.152;2023-02-04T07:31:52;8.90;99.90
19544;DHT22;9917;51.256;7.152;2023-02-04T07:34:18;8.90;99.90
19544;DHT22;9917;51.256;7.152;2023-02-04T07:36:44;8.90;99.90
19544;DHT22;9917;51.256;7.152;2023-02-04T07:39:10;9.00;99.90
19544;DHT22;9917;51.256;7.152;2023-02-04T07:41:36;9.00;99.90
19544;DHT22;9917;51.256;7.152;2023-02-04T07:44:02;9.00;99.90
19544;DHT22;9917;51.256;7.152;2023-02-04T07:46:28;9.10;99.90
19544;DHT22;9917;51.256;7.152;2023-02-04T07:48:55;9.10;99.90
19544;DHT22;9917;51.256;7.152;2023-02-04T07:51:21;9.10;99.90
19544;DHT22;9917;51.256;7.152;2023-02-04T07:53:47;9.20;99.90
19544;DHT22;9917;51.256;7.152;2023-02-04T07:56:13;9.20;99.90
19544;DHT22;9917;51.256;7.152;2023-02-04T08:01:04;9.20;99.90
19544;DHT22;9917;51.256;7.152;2023-02-04T08:03:30;9.20;99.90
19544;DHT22;9917;51.256;7.152;2023-02-04T08:05:57;9.20;99.90
19544;DHT22;9917;51.256;7.152;2023-02-04T08:08:23;9.10;99.90
19544;DHT22;9917;51.256;7.152;2023-02-04T08:10:49;9.10;99.90
19544;DHT22;9917;51.256;7.152;2023-02-04T08:13:16;9.10;99.90
19544;DHT22;9917;51.256;7.152;2023-02-04T08:15:41;9.10;99.90
19544;DHT22;9917;51.256;7.152;2023-02-04T08:18:07;9.20;99.90
19544;DHT22;9917;51.256;7.152;2023-02-04T08:20:33;9.20;99.90
19544;DHT22;9917;51.256;7.152;2023-02-04T08:23:00;9.20;99.90
19544;DHT22;9917;51.256;7.152;2023-02-04T08:25:26;9.30;99.90
19544;DHT22;9917;51.256;7.152;2023-02-04T08:27:51;9.40;99.90
19544;DHT22;9917;51.256;7.152;2023-02-04T08:30:17;9.50;99.90
19544;DHT22;9917;51.256;7.152;2023-02-04T08:32:43;9.60;99.90
19544;DHT22;9917;51.256;7.152;2023-02-04T08:35:08;9.70;99.90
19544;DHT22;9917;51.256;7.152;2023-02-04T08:37:34;9.70;99.90
19544;DHT22;9917;51.256;7.152;2023-02-04T08:40:02;9.90;99.90
19544;DHT22;9917;51.256;7.152;2023-02-04T08:42:28;9.90;99.90
19544;DHT22;9917;51.256;7.152;2023-02-04T08:44:53;9.90;99.90
19544;DHT22;9917;51.256;7.152;2023-02-04T08:47:19;10.00;99.90
19544;DHT22;9917;51.256;7.152;2023-02-04T08:49:45;10.10;99.90
19544;DHT22;9917;51.256;7.152;2023-02-04T08:52:10;10.30;99.90
19544;DHT22;9917;51.256;7.152;2023-02-04T08:54:36;10.40;99.90
19544;DHT22;9917;51.256;7.152;2023-02-04T08:57:03;10.60;99.90
19544;DHT22;9917;51.256;7.152;2023-02-04T08:59:29;10.80;99.90
19544;DHT22;9917;51.256;7.152;2023-02-04T09:01:56;10.70;99.90
19544;DHT22;9917;51.256;7.152;2023-02-04T09:04:22;11.00;99.90
19544;DHT22;9917;51.256;7.152;2023-02-04T09:06:49;11.10;99.90
19544;DHT22;9917;51.256;7.152;2023-02-04T09:09:16;11.20;99.90
19544;DHT22;9917;51.256;7.152;2023-02-04T09:11:42;11.30;99.90
19544;DHT22;9917;51.256;7.152;2023-02-04T09:14:09;11.40;99.90
19544;DHT22;9917;51.256;7.152;2023-02-04T09:16:35;11.50;99.90
19544;DHT22;9917;51.256;7.152;2023-02-04T09:19:01;11.60;99.90
19544;DHT22;9917;51.256;7.152;2023-02-04T09:21:27;11.50;99.90
19544;DHT22;9917;51.256;7.152;2023-02-04T09:23:53;11.50;99.90
19544;DHT22;9917;51.256;7.152;2023-02-04T09:26:19;11.50;99.90
19544;DHT22;9917;51.256;7.152;2023-02-04T09:28:45;11.50;99.90
19544;DHT22;9917;51.256;7.152;2023-02-04T09:31:12;11.40;99.90
19544;DHT22;9917;51.256;7.152;2023-02-04T09:33:38;11.40;99.90
19544;DHT22;9917;51.256;7.152;2023-02-04T09:36:05;11.40;99.90
19544;DHT22;9917;51.256;7.152;2023-02-04T09:38:31;11.40;99.90
19544;DHT22;9917;51.256;7.152;2023-02-04T09:41:00;11.40;99.90
19544;DHT22;9917;51.256;7.152;2023-02-04T09:43:30;11.60;99.90
19544;DHT22;9917;51.256;7.152;2023-02-04T09:48:24;12.00;99.90
19544;DHT22;9917;51.256;7.152;2023-02-04T09:50:51;12.10;99.90
19544;DHT22;9917;51.256;7.152;2023-02-04T09:53:20;12.00;99.90
19544;DHT22;9917;51.256;7.152;2023-02-04T09:55:49;12.10;99.90
19544;DHT22;9917;51.256;7.152;2023-02-04T09:58:17;12.00;99.90
19544;DHT22;9917;51.256;7.152;2023-02-04T10:00:44;11.90;99.90
19544;DHT22;9917;51.256;7.152;2023-02-04T10:03:13;11.90;99.90
19544;DHT22;9917;51.256;7.152;2023-02-04T10:05:41;12.00;99.90
19544;DHT22;9917;51.256;7.152;2023-02-04T10:08:11;11.90;99.90
19544;DHT22;9917;51.256;7.152;2023-02-04T10:10:38;11.80;99.90
19544;DHT22;9917;51.256;7.152;2023-02-04T10:13:04;11.90;99.90
19544;DHT22;9917;51.256;7.152;2023-02-04T10:15:30;12.00;99.90
19544;DHT22;9917;51.256;7.152;2023-02-04T10:18:00;11.90;99.90
19544;DHT22;9917;51.256;7.152;2023-02-04T10:20:27;12.00;99.90
19544;DHT22;9917;51.256;7.152;2023-02-04T10:22:55;12.20;99.90
19544;DHT22;9917;51.256;7.152;2023-02-04T10:25:22;12.30;99.90
19544;DHT22;9917;51.256;7.152;2023-02-04T10:27:49;12.50;99.90
19544;DHT22;9917;51.256;7.152;2023-02-04T10:30:19;12.60;99.90
19544;DHT22;9917;51.256;7.152;2023-02-04T10:32:45;12.80;99.90
19544;DHT22;9917;51.256;7.152;2023-02-04T10:35:13;13.00;99.90
19544;DHT22;9917;51.256;7.152;2023-02-04T10:37:39;13.40;99.90
19544;DHT22;9917;51.256;7.152;2023-02-04T10:40:24;13.70;99.90
19544;DHT22;9917;51.256;7.152;2023-02-04T10:42:50;13.80;99.90
19544;DHT22;9917;51.256;7.152;2023-02-04T10:45:24;13.90;99.90
19544;DHT22;9917;51.256;7.152;2023-02-04T10:47:51;14.60;99.90
19544;DHT22;9917;51.256;7.152;2023-02-04T10:50:18;15.00;99.90
19544;DHT22;9917;51.256;7.152;2023-02-04T10:52:47;15.00;99.90
19544;DHT22;9917;51.256;7.152;2023-02-04T10:55:17;14.90;99.90
19544;DHT22;9917;51.256;7.152;2023-02-04T10:57:45;14.90;99.90
19544;DHT22;9917;51.256;7.152;2023-02-04T11:00:15;15.40;99.90
19544;DHT22;9917;51.256;7.152;2023-02-04T11:02:43;16.70;99.90
19544;DHT22;9917;51.256;7.152;2023-02-04T11:05:13;17.40;99.90
19544;DHT22;9917;51.256;7.152;2023-02-04T11:07:40;17.40;99.90
19544;DHT22;9917;51.256;7.152;2023-02-04T11:10:17;16.90;99.90
19544;DHT22;9917;51.256;7.152;2023-02-04T11:12:46;16.40;99.90
19544;DHT22;9917;51.256;7.152;2023-02-04T11:15:41;15.80;99.90
19544;DHT22;9917;51.256;7.152;2023-02-04T11:18:09;15.20;99.90
19544;DHT22;9917;51.256;7.152;2023-02-04T11:20:36;15.60;99.90
19544;DHT22;9917;51.256;7.152;2023-02-04T11:23:28;14.90;99.90
19544;DHT22;9917;51.256;7.152;2023-02-04T11:26:03;14.50;99.90
19544;DHT22;9917;51.256;7.152;2023-02-04T11:28:45;14.20;99.90
19544;DHT22;9917;51.256;7.152;2023-02-04T11:31:28;13.80;99.90
19544;DHT22;9917;51.256;7.152;2023-02-04T11:34:23;13.60;99.90
19544;DHT22;9917;51.256;7.152;2023-02-04T11:36:54;13.50;99.90
19544;DHT22;9917;51.256;7.152;2023-02-04T11:39:19;13.20;99.90
19544;DHT22;9917;51.256;7.152;2023-02-04T11:41:51;13.30;99.90
19544;DHT22;9917;51.256;7.152;2023-02-04T11:44:18;13.20;99.90
19544;DHT22;9917;51.256;7.152;2023-02-04T11:46:49;13.40;99.90
19544;DHT22;9917;51.256;7.152;2023-02-04T11:49:18;13.40;99.90
19544;DHT22;9917;51.256;7.152;2023-02-04T11:51:45;13.50;99.90
19544;DHT22;9917;51.256;7.152;2023-02-04T11:54:11;13.30;99.90
19544;DHT22;9917;51.256;7.152;2023-02-04T11:56:38;13.20;99.90
19544;DHT22;9917;51.256;7.152;2023-02-04T11:59:05;13.10;99.90
19544;DHT22;9917;51.256;7.152;2023-02-04T12:01:33;13.00;99.90
19544;DHT22;9917;51.256;7.152;2023-02-04T12:04:01;13.10;99.90
19544;DHT22;9917;51.256;7.152;2023-02-04T12:06:29;12.90;99.90
19544;DHT22;9917;51.256;7.152;2023-02-04T12:09:04;12.80;99.90
19544;DHT22;9917;51.256;7.152;2023-02-04T12:11:30;13.10;99.90
19544;DHT22;9917;51.256;7.152;2023-02-04T12:13:57;13.40;99.90
19544;DHT22;9917;51.256;7.152;2023-02-04T12:16:25;13.50;99.90
19544;DHT22;9917;51.256;7.152;2023-02-04T12:18:53;13.60;99.90
19544;DHT22;9917;51.256;7.152;2023-02-04T12:21:19;13.70;99.90
19544;DHT22;9917;51.256;7.152;2023-02-04T12:23:45;13.70;99.90
19544;DHT22;9917;51.256;7.152;2023-02-04T12:26:11;13.70;99.90
19544;DHT22;9917;51.256;7.152;2023-02-04T12:28:37;13.50;99.90
19544;DHT22;9917;51.256;7.152;2023-02-04T12:31:03;13.30;99.90
19544;DHT22;9917;51.256;7.152;2023-02-04T12:33:30;13.20;99.90
19544;DHT22;9917;51.256;7.152;2023-02-04T12:35:56;13.00;99.90
19544;DHT22;9917;51.256;7.152;2023-02-04T12:38:22;13.10;99.90
19544;DHT22;9917;51.256;7.152;2023-02-04T12:40:47;13.20;99.90
19544;DHT22;9917;51.256;7.152;2023-02-04T12:43:13;13.30;99.90
19544;DHT22;9917;51.256;7.152;2023-02-04T12:45:39;13.30;99.90
19544;DHT22;9917;51.256;7.152;2023-02-04T12:48:05;13.20;99.90
19544;DHT22;9917;51.256;7.152;2023-02-04T12:50:32;13.10;99.90
19544;DHT22;9917;51.256;7.152;2023-02-04T12:52:58;12.80;99.90
19544;DHT22;9917;51.256;7.152;2023-02-04T12:55:26;12.50;99.90
19544;DHT22;9917;51.256;7.152;2023-02-04T12:57:52;12.50;99.90
19544;DHT22;9917;51.256;7.152;2023-02-04T13:00:22;12.40;99.90
19544;DHT22;9917;51.256;7.152;2023-02-04T13:02:48;12.10;99.90
19544;DHT22;9917;51.256;7.152;2023-02-04T13:05:16;12.10;99.90
19544;DHT22;9917;51.256;7.152;2023-02-04T13:07:44;12.10;99.90
19544;DHT22;9917;51.256;7.152;2023-02-04T13:10:10;12.10;99.90
19544;DHT22;9917;51.256;7.152;2023-02-04T13:12:36;12.10;99.90
19544;DHT22;9917;51.256;7.152;2023-02-04T13:17:28;12.40;99.90
19544;DHT22;9917;51.256;7.152;2023-02-04T13:19:54;12.40;99.90
19544;DHT22;9917;51.256;7.152;2023-02-04T13:22:20;12.40;99.90
19544;DHT22;9917;51.256;7.152;2023-02-04T13:24:47;12.30;99.90
19544;DHT22;9917;51.256;7.152;2023-02-04T13:27:12;12.30;99.90
19544;DHT22;9917;51.256;7.152;2023-02-04T13:29:38;12.40;99.90
19544;DHT22;9917;51.256;7.152;2023-02-04T13:32:04;12.50;99.90
19544;DHT22;9917;51.256;7.152;2023-02-04T13:34:30;12.70;99.90
19544;DHT22;9917;51.256;7.152;2023-02-04T13:36:55;12.90;99.90
19544;DHT22;9917;51.256;7.152;2023-02-04T13:39:21;13.10;99.90
19544;DHT22;9917;51.256;7.152;2023-02-04T13:41:48;13.40;99.90
19544;DHT22;9917;51.256;7.152;2023-02-04T13:44:14;13.40;99.90
19544;DHT22;9917;51.256;7.152;2023-02-04T13:46:40;13.30;99.90
19544;DHT22;9917;51.256;7.152;2023-02-04T13:49:06;13.40;99.90
19544;DHT22;9917;51.256;7.152;2023-02-04T13:51:31;13.50;99.90
19544;DHT22;9917;51.256;7.152;2023-02-04T13:53:57;13.50;99.90
19544;DHT22;9917;51.256;7.152;2023-02-04T13:56:23;13.60;99.90
19544;DHT22;9917;51.256;7.152;2023-02-04T13:58:50;13.80;99.90
19544;DHT22;9917;51.256;7.152;2023-02-04T14:01:16;13.90;99.90
19544;DHT22;9917;51.256;7.152;2023-02-04T14:03:42;14.10;99.90
19544;DHT22;9917;51.256;7.152;2023-02-04T14:06:07;14.20;99.90
19544;DHT22;9917;51.256;7.152;2023-02-04T14:08:33;14.20;99.90
19544;DHT22;9917;51.256;7.152;2023-02-04T14:10:59;14.10;99.90
19544;DHT22;9917;51.256;7.152;2023-02-04T14:13:27;14.00;99.90
19544;DHT22;9917;51.256;7.152;2023-02-04T14:15:54;13.70;99.90
19544;DHT22;9917;51.256;7.152;2023-02-04T14:18:20;13.40;99.90
19544;DHT22;9917;51.256;7.152;2023-02-04T14:20:45;13.30;99.90
19544;DHT22;9917;51.256;7.152;2023-02-04T14:23:11;13.00;99.90
19544;DHT22;9917;51.256;7.152;2023-02-04T14:25:37;12.60;99.90
19544;DHT22;9917;51.256;7.152;2023-02-04T14:28:03;12.20;99.90
19544;DHT22;9917;51.256;7.152;2023-02-04T14:30:30;11.70;99.90
19544;DHT22;9917;51.256;7.152;2023-02-04T14:32:57;11.60;99.90
19544;DHT22;9917;51.256;7.152;2023-02-04T14:35:23;11.40;99.90
19544;DHT22;9917;51.256;7.152;2023-02-04T14:37:49;11.40;99.90
19544;DHT22;9917;51.256;7.152;2023-02-04T14:40:16;11.30;99.90
19544;DHT22;9917;51.256;7.152;2023-02-04T14:42:43;11.40;99.90
19544;DHT22;9917;51.256;7.152;2023-02-04T14:45:10;11.40;99.90
19544;DHT22;9917;51.256;7.152;2023-02-04T14:47:37;11.40;99.90
19544;DHT22;9917;51.256;7.152;2023-02-04T14:50:07;11.50;99.90
19544;DHT22;9917;51.256;7.152;2023-02-04T14:52:33;11.80;99.90
19544;DHT22;9917;51.256;7.152;2023-02-04T14:54:58;11.80;99.90
19544;DHT22;9917;51.256;7.152;2023-02-04T14:57:24;11.80;99.90
19544;DHT22;9917;51.256;7.152;2023-02-04T14:59:51;11.60;99.90
19544;DHT22;9917;51.256;7.152;2023-02-04T15:02:17;11.50;99.90
19544;DHT22;9917;51.256;7.152;2023-02-04T15:04:43;11.40;99.90
19544;DHT22;9917;51.256;7.152;2023-02-04T15:07:11;11.20;99.90
19544;DHT22;9917;51.256;7.152;2023-02-04T15:09:37;11.10;99.90
19544;DHT22;9917;51.256;7.152;2023-02-04T15:12:04;11.00;99.90
19544;DHT22;9917;51.256;7.152;2023-02-04T15:14:30;11.10;99.90
19544;DHT22;9917;51.256;7.152;2023-02-04T15:16:56;11.50;99.90
19544;DHT22;9917;51.256;7.152;2023-02-04T15:19:21;11.80;99.90
19544;DHT22;9917;51.256;7.152;2023-02-04T15:21:47;12.20;99.90
19544;DHT22;9917;51.256;7.152;2023-02-04T15:24:15;12.60;99.90
19544;DHT22;9917;51.256;7.152;2023-02-04T15:26:40;12.80;99.90
19544;DHT22;9917;51.256;7.152;2023-02-04T15:29:06;12.70;99.90
19544;DHT22;9917;51.256;7.152;2023-02-04T15:31:32;12.60;99.90
19544;DHT22;9917;51.256;7.152;2023-02-04T15:33:58;12.60;99.90
19544;DHT22;9917;51.256;7.152;2023-02-04T15:36:24;12.20;99.90
19544;DHT22;9917;51.256;7.152;2023-02-04T15:38:50;12.10;99.90
19544;DHT22;9917;51.256;7.152;2023-02-04T15:41:17;11.90;99.90
19544;DHT22;9917;51.256;7.152;2023-02-04T15:43:44;11.90;99.90
19544;DHT22;9917;51.256;7.152;2023-02-04T15:46:09;11.50;99.90
19544;DHT22;9917;51.256;7.152;2023-02-04T15:48:35;10.80;99.90
19544;DHT22;9917;51.256;7.152;2023-02-04T15:51:01;10.80;99.90
19544;DHT22;9917;51.256;7.152;2023-02-04T15:53:27;10.60;99.90
19544;DHT22;9917;51.256;7.152;2023-02-04T15:55:52;10.50;99.90
19544;DHT22;9917;51.256;7.152;2023-02-04T15:58:20;10.40;99.90
19544;DHT22;9917;51.256;7.152;2023-02-04T16:00:45;10.30;99.90
19544;DHT22;9917;51.256;7.152;2023-02-04T16:03:11;10.10;99.90
19544;DHT22;9917;51.256;7.152;2023-02-04T16:05:37;10.10;99.90